Deering, North Dakota
Current Conditions -  °F | °C
As of 5:58 PM on Sunday 25 Jan 2015 (Local Time) from KMIB Reporting Station
Few Clouds Few Clouds  
Wind Chill: 28°   Ceiling: Unl
Heat Index: 34°   Visibility: 10mi
Dew Point: 34°   Wind: 8mph
Humidity: 99%   Direction: 190°S
Pressure: 29.78"   Gusts: NA
Location:  48.4°N, 101.05°W
Report Text: KMIB 252358Z AUTO 19007KT 10SM FEW075 01/01 A2978 RMK AO2 SLP112 T00130012 10014 21034 57028 $
Loading
Personal Weather Stations






























Interactive Weather Map New forecast layout! Learn more

10-Day Weather Forecast

Advertisements
Track Severe Weather on mobile